sensor_id;sensor_type;location;lat;lon;timestamp;P1;durP1;ratioP1;P2;durP2;ratioP2
2388;SDS011;1205;47.984;7.668;2024-01-15T00:01:16;40.53;;;16.30;;
2388;SDS011;1205;47.984;7.668;2024-01-15T00:03:42;33.23;;;13.63;;
2388;SDS011;1205;47.984;7.668;2024-01-15T00:06:08;33.77;;;14.37;;
2388;SDS011;1205;47.984;7.668;2024-01-15T00:08:33;31.30;;;14.00;;
2388;SDS011;1205;47.984;7.668;2024-01-15T00:10:59;29.13;;;13.07;;
2388;SDS011;1205;47.984;7.668;2024-01-15T00:13:24;32.07;;;14.03;;
2388;SDS011;1205;47.984;7.668;2024-01-15T00:15:50;26.57;;;12.73;;
2388;SDS011;1205;47.984;7.668;2024-01-15T00:18:16;32.23;;;13.87;;
2388;SDS011;1205;47.984;7.668;2024-01-15T00:20:41;30.13;;;13.83;;
2388;SDS011;1205;47.984;7.668;2024-01-15T00:23:07;36.40;;;15.10;;
2388;SDS011;1205;47.984;7.668;2024-01-15T00:25:32;36.83;;;14.67;;
2388;SDS011;1205;47.984;7.668;2024-01-15T00:27:58;33.73;;;14.47;;
2388;SDS011;1205;47.984;7.668;2024-01-15T00:30:24;31.70;;;13.93;;
2388;SDS011;1205;47.984;7.668;2024-01-15T00:32:49;33.23;;;14.07;;
2388;SDS011;1205;47.984;7.668;2024-01-15T00:35:15;31.47;;;12.77;;
2388;SDS011;1205;47.984;7.668;2024-01-15T00:37:40;31.87;;;13.10;;
2388;SDS011;1205;47.984;7.668;2024-01-15T00:40:06;30.60;;;14.13;;
2388;SDS011;1205;47.984;7.668;2024-01-15T00:42:33;30.77;;;14.17;;
2388;SDS011;1205;47.984;7.668;2024-01-15T00:44:59;34.90;;;16.10;;
2388;SDS011;1205;47.984;7.668;2024-01-15T00:47:24;29.63;;;13.83;;
2388;SDS011;1205;47.984;7.668;2024-01-15T00:49:50;38.00;;;15.90;;
2388;SDS011;1205;47.984;7.668;2024-01-15T00:52:16;35.37;;;15.83;;
2388;SDS011;1205;47.984;7.668;2024-01-15T00:54:41;30.37;;;14.37;;
2388;SDS011;1205;47.984;7.668;2024-01-15T00:57:07;28.67;;;14.20;;
2388;SDS011;1205;47.984;7.668;2024-01-15T00:59:32;30.70;;;13.70;;
2388;SDS011;1205;47.984;7.668;2024-01-15T01:01:58;31.27;;;14.10;;
2388;SDS011;1205;47.984;7.668;2024-01-15T01:04:24;33.00;;;14.90;;
2388;SDS011;1205;47.984;7.668;2024-01-15T01:06:49;32.80;;;14.57;;
2388;SDS011;1205;47.984;7.668;2024-01-15T01:09:15;29.30;;;13.47;;
2388;SDS011;1205;47.984;7.668;2024-01-15T01:11:40;33.07;;;13.70;;
2388;SDS011;1205;47.984;7.668;2024-01-15T01:14:06;31.40;;;14.00;;
2388;SDS011;1205;47.984;7.668;2024-01-15T01:16:31;34.03;;;14.00;;
2388;SDS011;1205;47.984;7.668;2024-01-15T01:19:03;35.77;;;14.67;;
2388;SDS011;1205;47.984;7.668;2024-01-15T01:21:32;34.37;;;14.80;;
2388;SDS011;1205;47.984;7.668;2024-01-15T01:23:58;25.83;;;12.90;;
2388;SDS011;1205;47.984;7.668;2024-01-15T01:26:24;34.07;;;15.00;;
2388;SDS011;1205;47.984;7.668;2024-01-15T01:28:49;36.23;;;15.20;;
2388;SDS011;1205;47.984;7.668;2024-01-15T01:31:15;34.30;;;13.37;;
2388;SDS011;1205;47.984;7.668;2024-01-15T01:33:41;39.10;;;15.00;;
2388;SDS011;1205;47.984;7.668;2024-01-15T01:36:08;35.23;;;14.80;;
2388;SDS011;1205;47.984;7.668;2024-01-15T01:38:34;38.73;;;16.07;;
2388;SDS011;1205;47.984;7.668;2024-01-15T01:41:00;36.60;;;15.57;;
2388;SDS011;1205;47.984;7.668;2024-01-15T01:43:26;43.60;;;16.47;;
2388;SDS011;1205;47.984;7.668;2024-01-15T01:45:51;43.43;;;16.80;;
2388;SDS011;1205;47.984;7.668;2024-01-15T01:48:20;32.30;;;14.73;;
2388;SDS011;1205;47.984;7.668;2024-01-15T01:50:46;42.33;;;17.23;;
2388;SDS011;1205;47.984;7.668;2024-01-15T01:53:11;41.70;;;16.40;;
2388;SDS011;1205;47.984;7.668;2024-01-15T01:55:37;46.47;;;17.20;;
2388;SDS011;1205;47.984;7.668;2024-01-15T01:58:04;46.67;;;17.40;;
2388;SDS011;1205;47.984;7.668;2024-01-15T02:00:30;38.77;;;16.43;;
2388;SDS011;1205;47.984;7.668;2024-01-15T02:02:57;41.10;;;18.00;;
2388;SDS011;1205;47.984;7.668;2024-01-15T02:05:23;43.80;;;17.57;;
2388;SDS011;1205;47.984;7.668;2024-01-15T02:07:48;44.13;;;19.30;;
2388;SDS011;1205;47.984;7.668;2024-01-15T02:10:14;40.67;;;16.70;;
2388;SDS011;1205;47.984;7.668;2024-01-15T02:12:39;41.17;;;17.60;;
2388;SDS011;1205;47.984;7.668;2024-01-15T02:15:05;40.63;;;17.20;;
2388;SDS011;1205;47.984;7.668;2024-01-15T02:17:31;40.87;;;17.87;;
2388;SDS011;1205;47.984;7.668;2024-01-15T02:19:57;40.07;;;19.03;;
2388;SDS011;1205;47.984;7.668;2024-01-15T02:22:22;44.83;;;18.13;;
2388;SDS011;1205;47.984;7.668;2024-01-15T02:24:48;46.03;;;18.70;;
2388;SDS011;1205;47.984;7.668;2024-01-15T02:27:13;39.57;;;16.67;;
2388;SDS011;1205;47.984;7.668;2024-01-15T02:29:39;51.70;;;20.47;;
2388;SDS011;1205;47.984;7.668;2024-01-15T02:32:05;41.73;;;18.73;;
2388;SDS011;1205;47.984;7.668;2024-01-15T02:34:33;51.90;;;19.90;;
2388;SDS011;1205;47.984;7.668;2024-01-15T02:36:59;49.93;;;18.03;;
2388;SDS011;1205;47.984;7.668;2024-01-15T02:39:25;45.00;;;18.67;;
2388;SDS011;1205;47.984;7.668;2024-01-15T02:41:50;49.10;;;19.30;;
2388;SDS011;1205;47.984;7.668;2024-01-15T02:44:16;43.40;;;17.77;;
2388;SDS011;1205;47.984;7.668;2024-01-15T02:46:41;40.90;;;18.00;;
2388;SDS011;1205;47.984;7.668;2024-01-15T02:49:07;42.63;;;18.37;;
2388;SDS011;1205;47.984;7.668;2024-01-15T02:51:33;46.57;;;19.77;;
2388;SDS011;1205;47.984;7.668;2024-01-15T02:53:59;49.17;;;18.90;;
2388;SDS011;1205;47.984;7.668;2024-01-15T02:56:25;39.97;;;17.20;;
2388;SDS011;1205;47.984;7.668;2024-01-15T02:58:50;52.80;;;18.93;;
2388;SDS011;1205;47.984;7.668;2024-01-15T03:01:18;45.20;;;19.23;;
2388;SDS011;1205;47.984;7.668;2024-01-15T03:03:44;48.87;;;19.00;;
2388;SDS011;1205;47.984;7.668;2024-01-15T03:06:10;45.10;;;17.80;;
2388;SDS011;1205;47.984;7.668;2024-01-15T03:08:36;51.27;;;18.23;;
2388;SDS011;1205;47.984;7.668;2024-01-15T03:11:01;51.57;;;20.67;;
2388;SDS011;1205;47.984;7.668;2024-01-15T03:13:27;51.10;;;19.83;;
2388;SDS011;1205;47.984;7.668;2024-01-15T03:15:52;47.30;;;19.73;;
2388;SDS011;1205;47.984;7.668;2024-01-15T03:18:18;48.67;;;18.17;;
2388;SDS011;1205;47.984;7.668;2024-01-15T03:20:43;45.73;;;18.73;;
2388;SDS011;1205;47.984;7.668;2024-01-15T03:23:09;44.97;;;18.00;;
2388;SDS011;1205;47.984;7.668;2024-01-15T03:25:35;44.73;;;18.10;;
2388;SDS011;1205;47.984;7.668;2024-01-15T03:28:00;43.80;;;17.40;;
2388;SDS011;1205;47.984;7.668;2024-01-15T03:30:26;46.17;;;17.60;;
2388;SDS011;1205;47.984;7.668;2024-01-15T03:32:51;39.50;;;16.80;;
2388;SDS011;1205;47.984;7.668;2024-01-15T03:35:17;47.30;;;17.77;;
2388;SDS011;1205;47.984;7.668;2024-01-15T03:37:42;45.17;;;17.97;;
2388;SDS011;1205;47.984;7.668;2024-01-15T03:40:08;54.93;;;19.83;;
2388;SDS011;1205;47.984;7.668;2024-01-15T03:42:34;39.70;;;17.07;;
2388;SDS011;1205;47.984;7.668;2024-01-15T03:45:00;45.40;;;17.73;;
2388;SDS011;1205;47.984;7.668;2024-01-15T03:47:26;39.37;;;16.83;;
2388;SDS011;1205;47.984;7.668;2024-01-15T03:49:51;42.80;;;17.80;;
2388;SDS011;1205;47.984;7.668;2024-01-15T03:52:17;47.17;;;18.07;;
2388;SDS011;1205;47.984;7.668;2024-01-15T03:54:42;43.20;;;17.30;;
2388;SDS011;1205;47.984;7.668;2024-01-15T03:57:08;48.90;;;18.37;;
2388;SDS011;1205;47.984;7.668;2024-01-15T03:59:33;43.20;;;17.23;;
2388;SDS011;1205;47.984;7.668;2024-01-15T04:01:59;48.60;;;18.97;;
2388;SDS011;1205;47.984;7.668;2024-01-15T04:04:24;52.87;;;19.33;;
2388;SDS011;1205;47.984;7.668;2024-01-15T04:06:50;41.27;;;17.07;;
2388;SDS011;1205;47.984;7.668;2024-01-15T04:09:15;51.70;;;19.13;;
2388;SDS011;1205;47.984;7.668;2024-01-15T04:11:41;44.17;;;17.50;;
2388;SDS011;1205;47.984;7.668;2024-01-15T04:14:07;45.80;;;17.63;;
2388;SDS011;1205;47.984;7.668;2024-01-15T04:16:32;46.43;;;16.67;;
2388;SDS011;1205;47.984;7.668;2024-01-15T04:18:58;39.20;;;17.47;;
2388;SDS011;1205;47.984;7.668;2024-01-15T04:21:23;46.03;;;18.10;;
2388;SDS011;1205;47.984;7.668;2024-01-15T04:23:49;46.00;;;19.50;;
2388;SDS011;1205;47.984;7.668;2024-01-15T04:26:14;48.20;;;17.90;;
2388;SDS011;1205;47.984;7.668;2024-01-15T04:28:40;41.33;;;17.70;;
2388;SDS011;1205;47.984;7.668;2024-01-15T04:31:06;41.47;;;18.67;;
2388;SDS011;1205;47.984;7.668;2024-01-15T04:33:31;44.10;;;19.10;;
2388;SDS011;1205;47.984;7.668;2024-01-15T04:35:57;47.40;;;19.90;;
2388;SDS011;1205;47.984;7.668;2024-01-15T04:38:27;43.60;;;18.73;;
2388;SDS011;1205;47.984;7.668;2024-01-15T04:40:52;42.27;;;18.37;;
2388;SDS011;1205;47.984;7.668;2024-01-15T04:43:18;46.27;;;18.37;;
2388;SDS011;1205;47.984;7.668;2024-01-15T04:45:43;38.93;;;17.23;;
2388;SDS011;1205;47.984;7.668;2024-01-15T04:48:09;44.67;;;17.50;;
2388;SDS011;1205;47.984;7.668;2024-01-15T04:50:34;45.80;;;18.37;;
2388;SDS011;1205;47.984;7.668;2024-01-15T04:53:00;46.07;;;19.10;;
2388;SDS011;1205;47.984;7.668;2024-01-15T04:55:25;51.73;;;18.97;;
2388;SDS011;1205;47.984;7.668;2024-01-15T04:57:51;42.27;;;17.90;;
2388;SDS011;1205;47.984;7.668;2024-01-15T05:00:17;45.90;;;18.77;;
2388;SDS011;1205;47.984;7.668;2024-01-15T05:02:42;51.67;;;20.60;;
2388;SDS011;1205;47.984;7.668;2024-01-15T05:05:08;51.80;;;20.40;;
2388;SDS011;1205;47.984;7.668;2024-01-15T05:07:33;43.83;;;18.67;;
2388;SDS011;1205;47.984;7.668;2024-01-15T05:09:59;59.43;;;21.00;;
2388;SDS011;1205;47.984;7.668;2024-01-15T05:12:25;51.27;;;22.20;;
2388;SDS011;1205;47.984;7.668;2024-01-15T05:14:50;54.87;;;21.67;;
2388;SDS011;1205;47.984;7.668;2024-01-15T05:17:16;46.80;;;19.33;;
2388;SDS011;1205;47.984;7.668;2024-01-15T05:19:42;46.30;;;18.50;;
2388;SDS011;1205;47.984;7.668;2024-01-15T05:22:07;50.10;;;18.50;;
2388;SDS011;1205;47.984;7.668;2024-01-15T05:24:33;47.47;;;20.73;;
2388;SDS011;1205;47.984;7.668;2024-01-15T05:26:58;42.90;;;17.03;;
2388;SDS011;1205;47.984;7.668;2024-01-15T05:29:24;51.87;;;18.83;;
2388;SDS011;1205;47.984;7.668;2024-01-15T05:31:49;49.73;;;19.33;;
2388;SDS011;1205;47.984;7.668;2024-01-15T05:34:15;52.03;;;17.60;;
2388;SDS011;1205;47.984;7.668;2024-01-15T05:36:41;52.20;;;19.70;;
2388;SDS011;1205;47.984;7.668;2024-01-15T05:39:06;48.60;;;19.80;;
2388;SDS011;1205;47.984;7.668;2024-01-15T05:41:32;44.27;;;19.17;;
2388;SDS011;1205;47.984;7.668;2024-01-15T05:43:57;50.80;;;21.03;;
2388;SDS011;1205;47.984;7.668;2024-01-15T05:46:23;45.63;;;19.67;;
2388;SDS011;1205;47.984;7.668;2024-01-15T05:48:49;49.60;;;19.97;;
2388;SDS011;1205;47.984;7.668;2024-01-15T05:51:14;50.97;;;19.50;;
2388;SDS011;1205;47.984;7.668;2024-01-15T05:53:40;46.47;;;18.70;;
2388;SDS011;1205;47.984;7.668;2024-01-15T05:56:07;46.53;;;18.50;;
2388;SDS011;1205;47.984;7.668;2024-01-15T05:58:35;39.27;;;14.43;;
2388;SDS011;1205;47.984;7.668;2024-01-15T06:01:00;44.50;;;18.20;;
2388;SDS011;1205;47.984;7.668;2024-01-15T06:03:26;48.10;;;19.63;;
2388;SDS011;1205;47.984;7.668;2024-01-15T06:05:52;44.67;;;18.87;;
2388;SDS011;1205;47.984;7.668;2024-01-15T06:08:18;48.13;;;18.70;;
2388;SDS011;1205;47.984;7.668;2024-01-15T06:10:43;42.97;;;18.83;;
2388;SDS011;1205;47.984;7.668;2024-01-15T06:13:09;43.73;;;18.93;;
2388;SDS011;1205;47.984;7.668;2024-01-15T06:15:35;40.63;;;17.70;;
2388;SDS011;1205;47.984;7.668;2024-01-15T06:18:00;50.50;;;18.93;;
2388;SDS011;1205;47.984;7.668;2024-01-15T06:20:26;48.77;;;20.70;;
2388;SDS011;1205;47.984;7.668;2024-01-15T06:22:52;41.57;;;19.33;;
2388;SDS011;1205;47.984;7.668;2024-01-15T06:25:17;43.10;;;18.00;;
2388;SDS011;1205;47.984;7.668;2024-01-15T06:27:43;47.13;;;18.73;;
2388;SDS011;1205;47.984;7.668;2024-01-15T06:30:09;48.87;;;19.87;;
2388;SDS011;1205;47.984;7.668;2024-01-15T06:32:35;41.47;;;18.07;;
2388;SDS011;1205;47.984;7.668;2024-01-15T06:35:01;49.40;;;19.53;;
2388;SDS011;1205;47.984;7.668;2024-01-15T06:37:26;44.30;;;17.30;;
2388;SDS011;1205;47.984;7.668;2024-01-15T06:39:52;45.10;;;17.63;;
2388;SDS011;1205;47.984;7.668;2024-01-15T06:42:18;43.93;;;18.10;;
2388;SDS011;1205;47.984;7.668;2024-01-15T06:44:43;43.63;;;18.30;;
2388;SDS011;1205;47.984;7.668;2024-01-15T06:47:09;44.30;;;18.57;;
2388;SDS011;1205;47.984;7.668;2024-01-15T06:49:34;40.73;;;16.47;;
2388;SDS011;1205;47.984;7.668;2024-01-15T06:52:00;38.20;;;16.87;;
2388;SDS011;1205;47.984;7.668;2024-01-15T06:54:26;36.73;;;16.33;;
2388;SDS011;1205;47.984;7.668;2024-01-15T06:56:51;33.67;;;14.77;;
2388;SDS011;1205;47.984;7.668;2024-01-15T06:59:17;38.13;;;15.50;;
2388;SDS011;1205;47.984;7.668;2024-01-15T07:01:42;41.37;;;17.87;;
2388;SDS011;1205;47.984;7.668;2024-01-15T07:04:08;41.63;;;16.70;;
2388;SDS011;1205;47.984;7.668;2024-01-15T07:06:34;37.10;;;15.20;;
2388;SDS011;1205;47.984;7.668;2024-01-15T07:08:59;35.90;;;16.13;;
2388;SDS011;1205;47.984;7.668;2024-01-15T07:11:25;43.83;;;15.47;;
2388;SDS011;1205;47.984;7.668;2024-01-15T07:13:50;34.20;;;15.40;;
2388;SDS011;1205;47.984;7.668;2024-01-15T07:16:16;37.50;;;14.43;;
2388;SDS011;1205;47.984;7.668;2024-01-15T07:18:42;36.67;;;14.87;;
2388;SDS011;1205;47.984;7.668;2024-01-15T07:21:07;30.00;;;13.30;;
2388;SDS011;1205;47.984;7.668;2024-01-15T07:23:33;36.63;;;14.57;;
2388;SDS011;1205;47.984;7.668;2024-01-15T07:25:58;34.30;;;14.03;;
2388;SDS011;1205;47.984;7.668;2024-01-15T07:28:24;34.07;;;14.30;;
2388;SDS011;1205;47.984;7.668;2024-01-15T07:30:49;30.07;;;13.57;;
2388;SDS011;1205;47.984;7.668;2024-01-15T07:33:15;31.30;;;14.00;;
2388;SDS011;1205;47.984;7.668;2024-01-15T07:35:41;30.90;;;12.50;;
2388;SDS011;1205;47.984;7.668;2024-01-15T07:38:06;30.43;;;13.87;;
2388;SDS011;1205;47.984;7.668;2024-01-15T07:40:32;25.07;;;11.50;;
2388;SDS011;1205;47.984;7.668;2024-01-15T07:42:58;29.60;;;12.30;;
2388;SDS011;1205;47.984;7.668;2024-01-15T07:45:24;25.07;;;11.60;;
2388;SDS011;1205;47.984;7.668;2024-01-15T07:47:49;29.90;;;12.27;;
2388;SDS011;1205;47.984;7.668;2024-01-15T07:50:15;28.77;;;12.37;;
2388;SDS011;1205;47.984;7.668;2024-01-15T07:52:40;30.13;;;11.60;;
2388;SDS011;1205;47.984;7.668;2024-01-15T07:55:07;28.60;;;12.23;;
2388;SDS011;1205;47.984;7.668;2024-01-15T07:57:33;26.23;;;11.87;;
2388;SDS011;1205;47.984;7.668;2024-01-15T07:59:58;30.33;;;12.30;;
2388;SDS011;1205;47.984;7.668;2024-01-15T08:02:24;25.97;;;11.00;;
2388;SDS011;1205;47.984;7.668;2024-01-15T08:04:49;25.50;;;11.87;;
2388;SDS011;1205;47.984;7.668;2024-01-15T08:07:15;24.00;;;11.60;;
2388;SDS011;1205;47.984;7.668;2024-01-15T08:09:40;23.20;;;11.17;;
2388;SDS011;1205;47.984;7.668;2024-01-15T08:12:07;23.50;;;11.37;;
2388;SDS011;1205;47.984;7.668;2024-01-15T08:14:32;24.00;;;11.17;;
2388;SDS011;1205;47.984;7.668;2024-01-15T08:16:58;23.40;;;11.50;;
2388;SDS011;1205;47.984;7.668;2024-01-15T08:19:23;23.60;;;10.77;;
2388;SDS011;1205;47.984;7.668;2024-01-15T08:21:49;22.20;;;9.90;;
2388;SDS011;1205;47.984;7.668;2024-01-15T08:24:15;21.70;;;10.33;;
2388;SDS011;1205;47.984;7.668;2024-01-15T08:26:41;19.30;;;9.20;;
2388;SDS011;1205;47.984;7.668;2024-01-15T08:29:07;20.73;;;9.30;;
2388;SDS011;1205;47.984;7.668;2024-01-15T08:31:33;19.77;;;9.50;;
2388;SDS011;1205;47.984;7.668;2024-01-15T08:33:58;18.63;;;8.70;;
2388;SDS011;1205;47.984;7.668;2024-01-15T08:36:24;17.60;;;7.93;;
2388;SDS011;1205;47.984;7.668;2024-01-15T08:38:50;18.20;;;8.30;;
2388;SDS011;1205;47.984;7.668;2024-01-15T08:41:15;19.40;;;8.50;;
2388;SDS011;1205;47.984;7.668;2024-01-15T08:43:41;17.93;;;8.67;;
2388;SDS011;1205;47.984;7.668;2024-01-15T08:46:07;13.97;;;7.47;;
2388;SDS011;1205;47.984;7.668;2024-01-15T08:48:32;13.97;;;6.80;;
2388;SDS011;1205;47.984;7.668;2024-01-15T08:50:58;19.30;;;8.20;;
2388;SDS011;1205;47.984;7.668;2024-01-15T08:53:23;15.33;;;7.93;;
2388;SDS011;1205;47.984;7.668;2024-01-15T08:55:49;16.70;;;8.33;;
2388;SDS011;1205;47.984;7.668;2024-01-15T08:58:15;12.23;;;7.20;;
2388;SDS011;1205;47.984;7.668;2024-01-15T09:00:41;19.03;;;8.57;;
2388;SDS011;1205;47.984;7.668;2024-01-15T09:03:07;16.43;;;8.67;;
2388;SDS011;1205;47.984;7.668;2024-01-15T09:05:35;16.53;;;8.13;;
2388;SDS011;1205;47.984;7.668;2024-01-15T09:08:01;15.47;;;7.83;;
2388;SDS011;1205;47.984;7.668;2024-01-15T09:10:26;18.57;;;8.73;;
2388;SDS011;1205;47.984;7.668;2024-01-15T09:12:52;19.43;;;9.40;;
2388;SDS011;1205;47.984;7.668;2024-01-15T09:15:18;14.83;;;8.70;;
2388;SDS011;1205;47.984;7.668;2024-01-15T09:17:44;15.50;;;8.13;;
2388;SDS011;1205;47.984;7.668;2024-01-15T09:20:10;14.70;;;7.90;;
2388;SDS011;1205;47.984;7.668;2024-01-15T09:22:39;14.27;;;7.50;;
2388;SDS011;1205;47.984;7.668;2024-01-15T09:25:08;21.10;;;8.73;;
2388;SDS011;1205;47.984;7.668;2024-01-15T09:27:36;16.67;;;8.17;;
2388;SDS011;1205;47.984;7.668;2024-01-15T09:30:02;18.03;;;9.27;;
2388;SDS011;1205;47.984;7.668;2024-01-15T09:32:28;21.23;;;9.70;;
2388;SDS011;1205;47.984;7.668;2024-01-15T09:34:54;17.40;;;8.63;;
2388;SDS011;1205;47.984;7.668;2024-01-15T09:37:20;21.83;;;9.90;;
2388;SDS011;1205;47.984;7.668;2024-01-15T09:39:46;20.90;;;10.17;;
2388;SDS011;1205;47.984;7.668;2024-01-15T09:42:13;23.63;;;11.33;;
2388;SDS011;1205;47.984;7.668;2024-01-15T09:44:39;20.00;;;10.73;;
2388;SDS011;1205;47.984;7.668;2024-01-15T09:47:05;24.70;;;11.17;;
2388;SDS011;1205;47.984;7.668;2024-01-15T09:49:31;21.17;;;10.47;;
2388;SDS011;1205;47.984;7.668;2024-01-15T09:51:57;22.03;;;11.00;;
2388;SDS011;1205;47.984;7.668;2024-01-15T09:54:23;23.07;;;11.13;;
2388;SDS011;1205;47.984;7.668;2024-01-15T09:56:49;24.07;;;11.80;;
2388;SDS011;1205;47.984;7.668;2024-01-15T09:59:16;21.63;;;10.40;;
2388;SDS011;1205;47.984;7.668;2024-01-15T10:01:43;25.40;;;11.90;;
2388;SDS011;1205;47.984;7.668;2024-01-15T10:04:13;26.37;;;12.23;;
2388;SDS011;1205;47.984;7.668;2024-01-15T10:06:39;26.03;;;11.80;;
2388;SDS011;1205;47.984;7.668;2024-01-15T10:09:14;26.33;;;11.67;;
2388;SDS011;1205;47.984;7.668;2024-01-15T10:11:43;20.97;;;10.90;;
2388;SDS011;1205;47.984;7.668;2024-01-15T10:14:10;21.20;;;11.00;;
2388;SDS011;1205;47.984;7.668;2024-01-15T10:16:40;24.20;;;11.60;;
2388;SDS011;1205;47.984;7.668;2024-01-15T10:19:06;24.90;;;12.10;;
2388;SDS011;1205;47.984;7.668;2024-01-15T10:21:32;23.10;;;11.13;;
2388;SDS011;1205;47.984;7.668;2024-01-15T10:24:02;21.70;;;11.33;;
2388;SDS011;1205;47.984;7.668;2024-01-15T10:26:28;27.20;;;12.77;;
2388;SDS011;1205;47.984;7.668;2024-01-15T10:28:54;28.03;;;12.60;;
2388;SDS011;1205;47.984;7.668;2024-01-15T10:31:20;26.50;;;12.50;;
2388;SDS011;1205;47.984;7.668;2024-01-15T10:33:47;26.90;;;12.27;;
2388;SDS011;1205;47.984;7.668;2024-01-15T10:36:14;27.13;;;12.63;;
2388;SDS011;1205;47.984;7.668;2024-01-15T10:38:41;26.40;;;12.97;;
2388;SDS011;1205;47.984;7.668;2024-01-15T10:41:08;26.53;;;12.53;;
2388;SDS011;1205;47.984;7.668;2024-01-15T10:43:33;30.63;;;13.50;;
2388;SDS011;1205;47.984;7.668;2024-01-15T10:45:59;22.20;;;11.97;;
2388;SDS011;1205;47.984;7.668;2024-01-15T10:48:25;22.23;;;12.40;;
2388;SDS011;1205;47.984;7.668;2024-01-15T10:50:53;25.93;;;12.80;;
2388;SDS011;1205;47.984;7.668;2024-01-15T10:53:19;28.50;;;13.53;;
2388;SDS011;1205;47.984;7.668;2024-01-15T10:55:46;27.37;;;12.70;;
2388;SDS011;1205;47.984;7.668;2024-01-15T10:58:13;22.90;;;11.90;;
2388;SDS011;1205;47.984;7.668;2024-01-15T11:00:40;27.37;;;12.97;;
2388;SDS011;1205;47.984;7.668;2024-01-15T11:03:06;22.90;;;11.93;;
2388;SDS011;1205;47.984;7.668;2024-01-15T11:05:39;21.87;;;11.80;;
2388;SDS011;1205;47.984;7.668;2024-01-15T11:08:08;25.90;;;13.73;;
2388;SDS011;1205;47.984;7.668;2024-01-15T11:10:38;22.40;;;11.20;;
2388;SDS011;1205;47.984;7.668;2024-01-15T11:13:04;23.70;;;12.67;;
2388;SDS011;1205;47.984;7.668;2024-01-15T11:15:30;26.60;;;12.00;;
2388;SDS011;1205;47.984;7.668;2024-01-15T11:17:59;27.00;;;12.00;;
2388;SDS011;1205;47.984;7.668;2024-01-15T11:20:30;19.47;;;10.67;;
2388;SDS011;1205;47.984;7.668;2024-01-15T11:22:57;21.23;;;11.33;;
2388;SDS011;1205;47.984;7.668;2024-01-15T11:25:24;23.90;;;11.80;;
2388;SDS011;1205;47.984;7.668;2024-01-15T11:28:00;23.30;;;11.70;;
2388;SDS011;1205;47.984;7.668;2024-01-15T11:30:26;21.43;;;11.57;;
2388;SDS011;1205;47.984;7.668;2024-01-15T11:32:52;22.33;;;10.97;;
2388;SDS011;1205;47.984;7.668;2024-01-15T11:35:17;25.63;;;12.40;;
2388;SDS011;1205;47.984;7.668;2024-01-15T11:43:00;21.60;;;10.20;;
2388;SDS011;1205;47.984;7.668;2024-01-15T11:45:28;21.40;;;10.03;;
2388;SDS011;1205;47.984;7.668;2024-01-15T11:48:17;12.00;;;6.10;;
2388;SDS011;1205;47.984;7.668;2024-01-15T11:50:46;12.50;;;7.97;;
2388;SDS011;1205;47.984;7.668;2024-01-15T11:56:16;13.60;;;7.63;;
2388;SDS011;1205;47.984;7.668;2024-01-15T11:58:42;11.70;;;7.20;;
2388;SDS011;1205;47.984;7.668;2024-01-15T12:01:10;11.20;;;7.37;;
2388;SDS011;1205;47.984;7.668;2024-01-15T12:03:36;13.63;;;7.53;;
2388;SDS011;1205;47.984;7.668;2024-01-15T12:06:02;12.40;;;7.17;;
2388;SDS011;1205;47.984;7.668;2024-01-15T12:08:30;13.23;;;7.07;;
2388;SDS011;1205;47.984;7.668;2024-01-15T12:10:55;20.30;;;8.87;;
2388;SDS011;1205;47.984;7.668;2024-01-15T12:13:21;23.17;;;11.50;;
2388;SDS011;1205;47.984;7.668;2024-01-15T12:15:47;19.90;;;10.70;;
2388;SDS011;1205;47.984;7.668;2024-01-15T12:18:14;19.40;;;9.63;;
2388;SDS011;1205;47.984;7.668;2024-01-15T12:20:41;12.47;;;8.07;;
2388;SDS011;1205;47.984;7.668;2024-01-15T12:23:07;19.17;;;9.80;;
2388;SDS011;1205;47.984;7.668;2024-01-15T12:25:33;17.83;;;8.80;;
2388;SDS011;1205;47.984;7.668;2024-01-15T12:27:59;14.30;;;8.70;;
2388;SDS011;1205;47.984;7.668;2024-01-15T12:30:29;16.40;;;8.97;;
2388;SDS011;1205;47.984;7.668;2024-01-15T12:33:01;15.80;;;8.57;;
2388;SDS011;1205;47.984;7.668;2024-01-15T12:35:28;17.73;;;8.93;;
2388;SDS011;1205;47.984;7.668;2024-01-15T12:37:55;15.90;;;8.47;;
2388;SDS011;1205;47.984;7.668;2024-01-15T12:40:21;21.40;;;8.60;;
2388;SDS011;1205;47.984;7.668;2024-01-15T12:42:47;19.23;;;8.83;;
2388;SDS011;1205;47.984;7.668;2024-01-15T12:45:13;20.00;;;10.20;;
2388;SDS011;1205;47.984;7.668;2024-01-15T12:47:39;18.47;;;9.40;;
2388;SDS011;1205;47.984;7.668;2024-01-15T12:50:11;15.47;;;9.30;;
2388;SDS011;1205;47.984;7.668;2024-01-15T12:52:38;16.67;;;9.30;;
2388;SDS011;1205;47.984;7.668;2024-01-15T12:55:06;13.60;;;8.33;;
2388;SDS011;1205;47.984;7.668;2024-01-15T12:57:35;17.53;;;9.00;;
2388;SDS011;1205;47.984;7.668;2024-01-15T13:00:02;21.13;;;10.17;;
2388;SDS011;1205;47.984;7.668;2024-01-15T13:02:32;24.60;;;10.53;;
2388;SDS011;1205;47.984;7.668;2024-01-15T13:04:58;23.00;;;9.80;;
2388;SDS011;1205;47.984;7.668;2024-01-15T13:07:24;32.60;;;10.30;;
2388;SDS011;1205;47.984;7.668;2024-01-15T13:09:50;17.23;;;9.67;;
2388;SDS011;1205;47.984;7.668;2024-01-15T13:12:18;22.83;;;10.07;;
2388;SDS011;1205;47.984;7.668;2024-01-15T13:14:45;15.90;;;7.50;;
2388;SDS011;1205;47.984;7.668;2024-01-15T13:17:11;11.63;;;7.00;;
2388;SDS011;1205;47.984;7.668;2024-01-15T13:19:37;11.90;;;6.67;;
2388;SDS011;1205;47.984;7.668;2024-01-15T13:22:04;10.70;;;5.97;;
2388;SDS011;1205;47.984;7.668;2024-01-15T13:24:31;12.27;;;6.43;;
2388;SDS011;1205;47.984;7.668;2024-01-15T13:26:57;11.67;;;7.30;;
2388;SDS011;1205;47.984;7.668;2024-01-15T13:29:23;12.40;;;7.47;;
2388;SDS011;1205;47.984;7.668;2024-01-15T13:31:48;12.83;;;6.77;;
2388;SDS011;1205;47.984;7.668;2024-01-15T13:34:14;8.13;;;5.23;;
2388;SDS011;1205;47.984;7.668;2024-01-15T13:36:39;13.43;;;6.57;;
2388;SDS011;1205;47.984;7.668;2024-01-15T13:39:06;12.63;;;6.67;;
2388;SDS011;1205;47.984;7.668;2024-01-15T13:41:34;13.80;;;6.70;;
2388;SDS011;1205;47.984;7.668;2024-01-15T13:44:00;15.10;;;8.43;;
2388;SDS011;1205;47.984;7.668;2024-01-15T13:46:26;14.10;;;6.37;;
2388;SDS011;1205;47.984;7.668;2024-01-15T13:48:51;13.73;;;7.23;;
2388;SDS011;1205;47.984;7.668;2024-01-15T13:51:18;14.97;;;8.70;;
2388;SDS011;1205;47.984;7.668;2024-01-15T13:53:43;12.67;;;6.20;;
2388;SDS011;1205;47.984;7.668;2024-01-15T13:56:09;11.73;;;6.00;;
2388;SDS011;1205;47.984;7.668;2024-01-15T13:58:35;10.70;;;6.63;;
2388;SDS011;1205;47.984;7.668;2024-01-15T14:01:02;12.63;;;5.97;;
2388;SDS011;1205;47.984;7.668;2024-01-15T14:03:31;10.50;;;6.10;;
2388;SDS011;1205;47.984;7.668;2024-01-15T14:05:56;12.03;;;5.80;;
2388;SDS011;1205;47.984;7.668;2024-01-15T14:08:22;12.87;;;6.20;;
2388;SDS011;1205;47.984;7.668;2024-01-15T14:10:48;18.07;;;9.60;;
2388;SDS011;1205;47.984;7.668;2024-01-15T14:13:14;25.80;;;11.90;;
2388;SDS011;1205;47.984;7.668;2024-01-15T14:15:39;33.23;;;13.90;;
2388;SDS011;1205;47.984;7.668;2024-01-15T14:18:05;17.23;;;9.60;;
2388;SDS011;1205;47.984;7.668;2024-01-15T14:20:31;17.50;;;9.80;;
2388;SDS011;1205;47.984;7.668;2024-01-15T14:22:56;22.00;;;11.87;;
2388;SDS011;1205;47.984;7.668;2024-01-15T14:25:22;24.33;;;9.57;;
2388;SDS011;1205;47.984;7.668;2024-01-15T14:27:49;21.70;;;10.63;;
2388;SDS011;1205;47.984;7.668;2024-01-15T14:30:15;19.40;;;9.63;;
2388;SDS011;1205;47.984;7.668;2024-01-15T14:32:41;20.20;;;11.57;;
2388;SDS011;1205;47.984;7.668;2024-01-15T14:35:07;24.30;;;12.23;;
2388;SDS011;1205;47.984;7.668;2024-01-15T14:37:35;23.93;;;11.73;;
2388;SDS011;1205;47.984;7.668;2024-01-15T14:40:05;23.20;;;12.17;;
2388;SDS011;1205;47.984;7.668;2024-01-15T14:42:37;26.43;;;12.43;;
2388;SDS011;1205;47.984;7.668;2024-01-15T14:45:03;23.60;;;11.40;;
2388;SDS011;1205;47.984;7.668;2024-01-15T14:47:35;23.43;;;11.30;;
2388;SDS011;1205;47.984;7.668;2024-01-15T14:50:00;25.43;;;10.97;;
2388;SDS011;1205;47.984;7.668;2024-01-15T14:52:26;27.53;;;11.70;;